sensor_id;sensor_type;location;lat;lon;timestamp;pressure;altitude;pressure_sealevel;temperature;humidity
32083;BME280;18597;48.328;7.932;2023-01-31T00:01:21;100721.66;;;1.99;100.00
32083;BME280;18597;48.328;7.932;2023-01-31T00:03:52;100715.84;;;1.89;100.00
32083;BME280;18597;48.328;7.932;2023-01-31T00:06:23;100713.91;;;1.94;100.00
32083;BME280;18597;48.328;7.932;2023-01-31T00:08:51;100713.16;;;1.91;100.00
32083;BME280;18597;48.328;7.932;2023-01-31T00:11:20;100714.00;;;1.91;100.00
32083;BME280;18597;48.328;7.932;2023-01-31T00:13:47;100713.59;;;1.77;100.00
32083;BME280;18597;48.328;7.932;2023-01-31T00:16:14;100705.81;;;1.74;100.00
32083;BME280;18597;48.328;7.932;2023-01-31T00:18:42;100706.44;;;1.81;100.00
32083;BME280;18597;48.328;7.932;2023-01-31T00:21:12;100709.78;;;1.59;100.00
32083;BME280;18597;48.328;7.932;2023-01-31T00:23:40;100712.72;;;1.49;100.00
32083;BME280;18597;48.328;7.932;2023-01-31T00:26:13;100713.03;;;1.39;100.00
32083;BME280;18597;48.328;7.932;2023-01-31T00:28:40;100703.69;;;1.29;100.00
32083;BME280;18597;48.328;7.932;2023-01-31T00:31:07;100713.94;;;1.09;100.00
32083;BME280;18597;48.328;7.932;2023-01-31T00:33:34;100709.75;;;1.02;100.00
32083;BME280;18597;48.328;7.932;2023-01-31T00:36:04;100709.28;;;0.88;100.00
32083;BME280;18597;48.328;7.932;2023-01-31T00:38:30;100703.13;;;0.89;100.00
32083;BME280;18597;48.328;7.932;2023-01-31T00:40:56;100713.31;;;1.01;100.00
32083;BME280;18597;48.328;7.932;2023-01-31T00:43:21;100710.53;;;1.05;100.00
32083;BME280;18597;48.328;7.932;2023-01-31T00:45:47;100707.72;;;1.11;100.00
32083;BME280;18597;48.328;7.932;2023-01-31T00:48:13;100705.13;;;1.10;100.00
32083;BME280;18597;48.328;7.932;2023-01-31T00:50:39;100701.47;;;1.16;100.00
32083;BME280;18597;48.328;7.932;2023-01-31T00:53:05;100713.78;;;1.15;100.00
32083;BME280;18597;48.328;7.932;2023-01-31T00:55:31;100715.56;;;1.13;100.00
32083;BME280;18597;48.328;7.932;2023-01-31T00:57:57;100710.84;;;1.24;100.00
32083;BME280;18597;48.328;7.932;2023-01-31T01:00:23;100711.72;;;1.25;100.00
32083;BME280;18597;48.328;7.932;2023-01-31T01:02:49;100706.56;;;1.22;100.00
32083;BME280;18597;48.328;7.932;2023-01-31T01:05:15;100705.69;;;1.21;100.00
32083;BME280;18597;48.328;7.932;2023-01-31T01:07:41;100709.38;;;1.16;100.00
32083;BME280;18597;48.328;7.932;2023-01-31T01:10:08;100709.44;;;1.13;100.00
32083;BME280;18597;48.328;7.932;2023-01-31T01:12:34;100718.63;;;0.98;100.00
32083;BME280;18597;48.328;7.932;2023-01-31T01:14:59;100712.56;;;0.96;100.00
32083;BME280;18597;48.328;7.932;2023-01-31T01:17:25;100705.53;;;0.96;100.00
32083;BME280;18597;48.328;7.932;2023-01-31T01:19:51;100698.28;;;0.73;100.00
32083;BME280;18597;48.328;7.932;2023-01-31T01:22:17;100704.78;;;0.60;100.00
32083;BME280;18597;48.328;7.932;2023-01-31T01:24:44;100694.97;;;0.68;100.00
32083;BME280;18597;48.328;7.932;2023-01-31T01:27:11;100692.78;;;0.82;100.00
32083;BME280;18597;48.328;7.932;2023-01-31T01:29:38;100697.59;;;0.67;100.00
32083;BME280;18597;48.328;7.932;2023-01-31T01:32:05;100698.97;;;0.49;100.00
32083;BME280;18597;48.328;7.932;2023-01-31T01:34:33;100695.75;;;0.39;100.00
32083;BME280;18597;48.328;7.932;2023-01-31T01:36:59;100697.16;;;0.51;100.00
32083;BME280;18597;48.328;7.932;2023-01-31T01:39:25;100694.22;;;0.31;100.00
32083;BME280;18597;48.328;7.932;2023-01-31T01:41:54;100699.00;;;0.15;100.00
32083;BME280;18597;48.328;7.932;2023-01-31T01:45:08;100693.06;;;0.08;100.00
32083;BME280;18597;48.328;7.932;2023-01-31T01:47:52;100702.97;;;-0.03;100.00
32083;BME280;18597;48.328;7.932;2023-01-31T01:53:11;100712.31;;;-0.27;100.00
32083;BME280;18597;48.328;7.932;2023-01-31T01:58:25;100709.72;;;-0.29;100.00
32083;BME280;18597;48.328;7.932;2023-01-31T02:00:53;100698.19;;;-0.59;100.00
32083;BME280;18597;48.328;7.932;2023-01-31T02:03:20;100704.69;;;-0.76;100.00
32083;BME280;18597;48.328;7.932;2023-01-31T02:05:52;100698.56;;;-0.75;100.00
32083;BME280;18597;48.328;7.932;2023-01-31T02:08:22;100706.66;;;-0.86;100.00
32083;BME280;18597;48.328;7.932;2023-01-31T02:11:01;100700.88;;;-1.02;100.00
32083;BME280;18597;48.328;7.932;2023-01-31T02:13:28;100708.94;;;-1.11;100.00
32083;BME280;18597;48.328;7.932;2023-01-31T02:15:55;100704.72;;;-1.18;100.00
32083;BME280;18597;48.328;7.932;2023-01-31T02:18:24;100704.75;;;-1.21;100.00
32083;BME280;18597;48.328;7.932;2023-01-31T02:21:21;100695.72;;;-1.05;100.00
32083;BME280;18597;48.328;7.932;2023-01-31T02:24:36;100698.59;;;-1.19;100.00
32083;BME280;18597;48.328;7.932;2023-01-31T02:33:11;100718.84;;;-1.25;100.00
32083;BME280;18597;48.328;7.932;2023-01-31T02:36:14;100727.94;;;-1.45;100.00
32083;BME280;18597;48.328;7.932;2023-01-31T02:39:24;100730.69;;;-1.52;100.00
32083;BME280;18597;48.328;7.932;2023-01-31T02:42:10;100728.22;;;-1.58;100.00
32083;BME280;18597;48.328;7.932;2023-01-31T02:45:08;100731.84;;;-1.65;100.00
32083;BME280;18597;48.328;7.932;2023-01-31T02:53:31;100733.81;;;-1.78;100.00
32083;BME280;18597;48.328;7.932;2023-01-31T02:56:08;100728.47;;;-1.72;100.00
32083;BME280;18597;48.328;7.932;2023-01-31T02:59:00;100724.88;;;-1.68;100.00
32083;BME280;18597;48.328;7.932;2023-01-31T03:01:39;100727.66;;;-1.77;100.00
32083;BME280;18597;48.328;7.932;2023-01-31T03:04:09;100733.97;;;-1.87;100.00
32083;BME280;18597;48.328;7.932;2023-01-31T03:09:22;100734.09;;;-1.95;100.00
32083;BME280;18597;48.328;7.932;2023-01-31T03:12:40;100732.19;;;-1.85;100.00
32083;BME280;18597;48.328;7.932;2023-01-31T03:18:10;100737.53;;;-1.91;100.00
32083;BME280;18597;48.328;7.932;2023-01-31T03:20:49;100728.66;;;-1.84;100.00
32083;BME280;18597;48.328;7.932;2023-01-31T03:23:20;100731.22;;;-1.80;100.00
32083;BME280;18597;48.328;7.932;2023-01-31T03:25:48;100726.88;;;-1.82;100.00
32083;BME280;18597;48.328;7.932;2023-01-31T03:28:21;100732.94;;;-1.79;100.00
32083;BME280;18597;48.328;7.932;2023-01-31T03:33:47;100722.38;;;-1.73;100.00
32083;BME280;18597;48.328;7.932;2023-01-31T03:40:15;100729.94;;;-1.59;100.00
32083;BME280;18597;48.328;7.932;2023-01-31T03:42:50;100725.59;;;-1.58;100.00
32083;BME280;18597;48.328;7.932;2023-01-31T03:46:00;100724.66;;;-1.56;100.00
32083;BME280;18597;48.328;7.932;2023-01-31T03:48:14;100733.31;;;-1.51;100.00
32083;BME280;18597;48.328;7.932;2023-01-31T03:50:51;100722.06;;;-1.56;100.00
32083;BME280;18597;48.328;7.932;2023-01-31T03:53:34;100727.28;;;-1.56;100.00
32083;BME280;18597;48.328;7.932;2023-01-31T03:56:29;100722.13;;;-1.60;100.00
32083;BME280;18597;48.328;7.932;2023-01-31T03:59:03;100724.78;;;-1.62;100.00
32083;BME280;18597;48.328;7.932;2023-01-31T04:01:34;100716.91;;;-1.62;100.00
32083;BME280;18597;48.328;7.932;2023-01-31T04:04:08;100722.38;;;-1.73;100.00
32083;BME280;18597;48.328;7.932;2023-01-31T04:06:35;100724.38;;;-1.88;100.00
32083;BME280;18597;48.328;7.932;2023-01-31T04:09:01;100722.75;;;-1.96;100.00
32083;BME280;18597;48.328;7.932;2023-01-31T04:11:27;100721.13;;;-2.04;100.00
32083;BME280;18597;48.328;7.932;2023-01-31T04:13:53;100735.13;;;-2.05;100.00
32083;BME280;18597;48.328;7.932;2023-01-31T04:16:19;100740.50;;;-2.11;100.00
32083;BME280;18597;48.328;7.932;2023-01-31T04:18:45;100744.94;;;-2.18;100.00
32083;BME280;18597;48.328;7.932;2023-01-31T04:21:13;100748.34;;;-2.13;100.00
32083;BME280;18597;48.328;7.932;2023-01-31T04:23:39;100739.06;;;-2.32;100.00
32083;BME280;18597;48.328;7.932;2023-01-31T04:26:05;100737.44;;;-2.41;100.00
32083;BME280;18597;48.328;7.932;2023-01-31T04:28:31;100734.06;;;-2.47;100.00
32083;BME280;18597;48.328;7.932;2023-01-31T04:30:57;100733.78;;;-2.31;100.00
32083;BME280;18597;48.328;7.932;2023-01-31T04:33:23;100740.88;;;-2.37;100.00
32083;BME280;18597;48.328;7.932;2023-01-31T04:35:50;100743.34;;;-2.28;100.00
32083;BME280;18597;48.328;7.932;2023-01-31T04:38:16;100738.59;;;-2.03;100.00
32083;BME280;18597;48.328;7.932;2023-01-31T04:40:42;100746.19;;;-1.86;100.00
32083;BME280;18597;48.328;7.932;2023-01-31T04:43:08;100743.09;;;-2.13;100.00
32083;BME280;18597;48.328;7.932;2023-01-31T04:45:34;100732.47;;;-2.02;100.00
32083;BME280;18597;48.328;7.932;2023-01-31T04:48:00;100739.69;;;-2.16;100.00
32083;BME280;18597;48.328;7.932;2023-01-31T04:50:26;100742.22;;;-2.10;100.00
32083;BME280;18597;48.328;7.932;2023-01-31T04:52:51;100750.06;;;-2.12;100.00
32083;BME280;18597;48.328;7.932;2023-01-31T04:55:18;100747.78;;;-2.32;100.00
32083;BME280;18597;48.328;7.932;2023-01-31T04:57:44;100746.94;;;-2.35;100.00
32083;BME280;18597;48.328;7.932;2023-01-31T05:00:10;100750.53;;;-2.42;100.00
32083;BME280;18597;48.328;7.932;2023-01-31T05:02:36;100745.16;;;-2.32;100.00
32083;BME280;18597;48.328;7.932;2023-01-31T05:05:04;100742.63;;;-2.38;100.00
32083;BME280;18597;48.328;7.932;2023-01-31T05:07:30;100747.13;;;-2.47;100.00
32083;BME280;18597;48.328;7.932;2023-01-31T05:09:56;100745.50;;;-2.55;100.00
32083;BME280;18597;48.328;7.932;2023-01-31T05:12:22;100746.53;;;-2.66;100.00
32083;BME280;18597;48.328;7.932;2023-01-31T05:14:47;100737.06;;;-2.75;100.00
32083;BME280;18597;48.328;7.932;2023-01-31T05:17:13;100738.84;;;-2.80;100.00
32083;BME280;18597;48.328;7.932;2023-01-31T05:19:39;100730.19;;;-2.84;100.00
32083;BME280;18597;48.328;7.932;2023-01-31T05:22:06;100729.22;;;-2.76;100.00
32083;BME280;18597;48.328;7.932;2023-01-31T05:24:33;100730.16;;;-2.82;100.00
32083;BME280;18597;48.328;7.932;2023-01-31T05:27:00;100736.34;;;-2.88;100.00
32083;BME280;18597;48.328;7.932;2023-01-31T05:29:29;100739.03;;;-2.92;100.00
32083;BME280;18597;48.328;7.932;2023-01-31T05:31:57;100730.09;;;-2.76;100.00
32083;BME280;18597;48.328;7.932;2023-01-31T05:34:25;100731.97;;;-2.87;100.00
32083;BME280;18597;48.328;7.932;2023-01-31T05:36:51;100742.44;;;-2.87;100.00
32083;BME280;18597;48.328;7.932;2023-01-31T05:39:18;100740.84;;;-2.97;100.00
32083;BME280;18597;48.328;7.932;2023-01-31T05:41:43;100739.16;;;-3.01;100.00
32083;BME280;18597;48.328;7.932;2023-01-31T05:44:09;100746.19;;;-3.07;100.00
32083;BME280;18597;48.328;7.932;2023-01-31T05:46:36;100739.19;;;-3.04;100.00
32083;BME280;18597;48.328;7.932;2023-01-31T05:49:03;100740.00;;;-3.02;100.00
32083;BME280;18597;48.328;7.932;2023-01-31T05:51:29;100737.34;;;-2.98;100.00
32083;BME280;18597;48.328;7.932;2023-01-31T05:53:55;100744.06;;;-2.77;100.00
32083;BME280;18597;48.328;7.932;2023-01-31T05:56:22;100754.66;;;-2.86;100.00
32083;BME280;18597;48.328;7.932;2023-01-31T05:58:49;100770.34;;;-2.88;100.00
32083;BME280;18597;48.328;7.932;2023-01-31T06:01:18;100770.13;;;-2.69;100.00
32083;BME280;18597;48.328;7.932;2023-01-31T06:03:44;100767.91;;;-2.37;100.00
32083;BME280;18597;48.328;7.932;2023-01-31T06:06:11;100768.00;;;-2.41;100.00
32083;BME280;18597;48.328;7.932;2023-01-31T06:08:37;100779.53;;;-2.56;100.00
32083;BME280;18597;48.328;7.932;2023-01-31T06:11:04;100773.53;;;-2.63;100.00
32083;BME280;18597;48.328;7.932;2023-01-31T06:13:31;100778.78;;;-2.66;100.00
32083;BME280;18597;48.328;7.932;2023-01-31T06:15:57;100776.31;;;-2.76;100.00
32083;BME280;18597;48.328;7.932;2023-01-31T06:18:23;100768.44;;;-2.75;100.00
32083;BME280;18597;48.328;7.932;2023-01-31T06:20:49;100764.69;;;-2.56;100.00
32083;BME280;18597;48.328;7.932;2023-01-31T06:23:15;100777.81;;;-2.59;100.00
32083;BME280;18597;48.328;7.932;2023-01-31T06:25:41;100785.13;;;-2.84;100.00
32083;BME280;18597;48.328;7.932;2023-01-31T06:28:07;100764.16;;;-2.81;100.00
32083;BME280;18597;48.328;7.932;2023-01-31T06:30:35;100760.72;;;-2.84;100.00
32083;BME280;18597;48.328;7.932;2023-01-31T06:33:01;100767.63;;;-2.80;100.00
32083;BME280;18597;48.328;7.932;2023-01-31T06:35:28;100767.53;;;-2.72;100.00
32083;BME280;18597;48.328;7.932;2023-01-31T06:37:54;100768.47;;;-2.76;100.00
32083;BME280;18597;48.328;7.932;2023-01-31T06:40:20;100775.97;;;-2.52;100.00
32083;BME280;18597;48.328;7.932;2023-01-31T06:42:46;100769.81;;;-2.48;100.00
32083;BME280;18597;48.328;7.932;2023-01-31T06:45:12;100769.28;;;-2.71;100.00
32083;BME280;18597;48.328;7.932;2023-01-31T06:47:38;100773.00;;;-2.91;100.00
32083;BME280;18597;48.328;7.932;2023-01-31T06:50:04;100761.59;;;-2.84;100.00
32083;BME280;18597;48.328;7.932;2023-01-31T06:52:30;100773.94;;;-2.96;100.00
32083;BME280;18597;48.328;7.932;2023-01-31T06:54:56;100778.44;;;-3.08;100.00
32083;BME280;18597;48.328;7.932;2023-01-31T06:57:22;100791.56;;;-3.12;100.00
32083;BME280;18597;48.328;7.932;2023-01-31T06:59:47;100784.13;;;-2.75;100.00
32083;BME280;18597;48.328;7.932;2023-01-31T07:02:13;100779.81;;;-2.77;100.00
32083;BME280;18597;48.328;7.932;2023-01-31T07:04:39;100786.13;;;-2.95;100.00
32083;BME280;18597;48.328;7.932;2023-01-31T07:07:05;100786.03;;;-2.88;100.00
32083;BME280;18597;48.328;7.932;2023-01-31T07:09:30;100788.75;;;-2.97;100.00
32083;BME280;18597;48.328;7.932;2023-01-31T07:11:56;100789.59;;;-2.93;100.00
32083;BME280;18597;48.328;7.932;2023-01-31T07:14:22;100791.22;;;-2.83;100.00
32083;BME280;18597;48.328;7.932;2023-01-31T07:16:48;100798.16;;;-2.81;100.00
32083;BME280;18597;48.328;7.932;2023-01-31T07:19:13;100791.25;;;-2.85;100.00
32083;BME280;18597;48.328;7.932;2023-01-31T07:21:39;100793.88;;;-2.86;100.00
32083;BME280;18597;48.328;7.932;2023-01-31T07:24:06;100795.56;;;-2.82;100.00
32083;BME280;18597;48.328;7.932;2023-01-31T07:26:32;100788.56;;;-2.82;100.00
32083;BME280;18597;48.328;7.932;2023-01-31T07:28:59;100790.97;;;-2.65;100.00
32083;BME280;18597;48.328;7.932;2023-01-31T07:31:25;100788.16;;;-2.51;100.00
32083;BME280;18597;48.328;7.932;2023-01-31T07:33:51;100794.31;;;-2.54;100.00
32083;BME280;18597;48.328;7.932;2023-01-31T07:36:16;100797.75;;;-2.48;100.00
32083;BME280;18597;48.328;7.932;2023-01-31T07:38:47;100803.84;;;-2.48;100.00
32083;BME280;18597;48.328;7.932;2023-01-31T07:41:13;100796.66;;;-2.35;100.00
32083;BME280;18597;48.328;7.932;2023-01-31T07:43:38;100787.84;;;-2.28;100.00
32083;BME280;18597;48.328;7.932;2023-01-31T07:46:06;100798.16;;;-2.16;100.00
32083;BME280;18597;48.328;7.932;2023-01-31T07:48:34;100807.75;;;-2.16;100.00
32083;BME280;18597;48.328;7.932;2023-01-31T07:51:02;100796.34;;;-2.11;100.00
32083;BME280;18597;48.328;7.932;2023-01-31T07:53:31;100799.63;;;-2.00;100.00
32083;BME280;18597;48.328;7.932;2023-01-31T07:56:07;100807.69;;;-1.58;100.00
32083;BME280;18597;48.328;7.932;2023-01-31T07:58:36;100804.63;;;-0.87;100.00
32083;BME280;18597;48.328;7.932;2023-01-31T08:01:02;100802.19;;;0.23;100.00
32083;BME280;18597;48.328;7.932;2023-01-31T08:03:49;100796.53;;;1.64;100.00
32083;BME280;18597;48.328;7.932;2023-01-31T08:06:15;100795.81;;;3.18;100.00
32083;BME280;18597;48.328;7.932;2023-01-31T08:08:42;100800.09;;;3.67;100.00
32083;BME280;18597;48.328;7.932;2023-01-31T08:11:08;100798.03;;;4.41;100.00
32083;BME280;18597;48.328;7.932;2023-01-31T08:13:35;100789.59;;;5.33;100.00
32083;BME280;18597;48.328;7.932;2023-01-31T08:16:04;100787.22;;;6.21;100.00
32083;BME280;18597;48.328;7.932;2023-01-31T08:18:30;100787.44;;;6.17;100.00
32083;BME280;18597;48.328;7.932;2023-01-31T08:20:57;100788.47;;;4.99;98.75
32083;BME280;18597;48.328;7.932;2023-01-31T08:23:23;100789.59;;;3.66;100.00
32083;BME280;18597;48.328;7.932;2023-01-31T08:25:48;100797.41;;;2.72;100.00
32083;BME280;18597;48.328;7.932;2023-01-31T08:28:15;100791.78;;;2.05;100.00
32083;BME280;18597;48.328;7.932;2023-01-31T08:30:42;100795.88;;;1.57;100.00
32083;BME280;18597;48.328;7.932;2023-01-31T08:33:10;100798.50;;;1.28;100.00
32083;BME280;18597;48.328;7.932;2023-01-31T08:35:37;100806.06;;;1.09;100.00
32083;BME280;18597;48.328;7.932;2023-01-31T08:38:03;100800.56;;;0.86;100.00
32083;BME280;18597;48.328;7.932;2023-01-31T08:40:30;100794.09;;;0.65;100.00
32083;BME280;18597;48.328;7.932;2023-01-31T08:42:58;100795.91;;;0.63;100.00
32083;BME280;18597;48.328;7.932;2023-01-31T08:45:27;100799.59;;;0.55;100.00
32083;BME280;18597;48.328;7.932;2023-01-31T08:47:56;100801.53;;;0.49;100.00
32083;BME280;18597;48.328;7.932;2023-01-31T08:50:25;100804.25;;;0.46;100.00
32083;BME280;18597;48.328;7.932;2023-01-31T08:52:54;100793.72;;;0.46;100.00
32083;BME280;18597;48.328;7.932;2023-01-31T08:55:22;100789.25;;;0.49;100.00
32083;BME280;18597;48.328;7.932;2023-01-31T08:57:50;100787.41;;;0.53;100.00
32083;BME280;18597;48.328;7.932;2023-01-31T09:00:17;100786.31;;;0.60;100.00
32083;BME280;18597;48.328;7.932;2023-01-31T09:02:44;100784.78;;;0.53;100.00
32083;BME280;18597;48.328;7.932;2023-01-31T09:05:11;100788.94;;;0.60;100.00
32083;BME280;18597;48.328;7.932;2023-01-31T09:07:38;100788.09;;;0.60;100.00
32083;BME280;18597;48.328;7.932;2023-01-31T09:10:04;100779.28;;;0.62;100.00
32083;BME280;18597;48.328;7.932;2023-01-31T09:12:32;100778.22;;;0.68;100.00
32083;BME280;18597;48.328;7.932;2023-01-31T09:14:58;100772.75;;;0.77;100.00
32083;BME280;18597;48.328;7.932;2023-01-31T09:17:23;100771.41;;;0.93;100.00
32083;BME280;18597;48.328;7.932;2023-01-31T09:19:49;100781.78;;;0.99;100.00
32083;BME280;18597;48.328;7.932;2023-01-31T09:22:15;100770.84;;;1.13;100.00
32083;BME280;18597;48.328;7.932;2023-01-31T09:24:41;100773.91;;;1.29;100.00
32083;BME280;18597;48.328;7.932;2023-01-31T09:27:07;100778.28;;;1.58;100.00
32083;BME280;18597;48.328;7.932;2023-01-31T09:29:32;100761.19;;;1.99;100.00
32083;BME280;18597;48.328;7.932;2023-01-31T09:31:58;100769.38;;;2.44;100.00
32083;BME280;18597;48.328;7.932;2023-01-31T09:34:24;100775.53;;;2.95;100.00
32083;BME280;18597;48.328;7.932;2023-01-31T09:36:50;100777.44;;;3.38;100.00
32083;BME280;18597;48.328;7.932;2023-01-31T09:39:16;100764.88;;;3.67;100.00
32083;BME280;18597;48.328;7.932;2023-01-31T09:41:50;100775.28;;;3.71;100.00
32083;BME280;18597;48.328;7.932;2023-01-31T09:44:25;100774.31;;;3.74;100.00
32083;BME280;18597;48.328;7.932;2023-01-31T09:47:08;100775.28;;;3.71;100.00
32083;BME280;18597;48.328;7.932;2023-01-31T09:49:50;100793.97;;;3.88;100.00
32083;BME280;18597;48.328;7.932;2023-01-31T09:52:17;100800.75;;;3.96;100.00
32083;BME280;18597;48.328;7.932;2023-01-31T09:54:44;100799.69;;;4.00;100.00
32083;BME280;18597;48.328;7.932;2023-01-31T10:00:19;100815.44;;;4.47;100.00
32083;BME280;18597;48.328;7.932;2023-01-31T10:06:23;100805.81;;;4.86;100.00
32083;BME280;18597;48.328;7.932;2023-01-31T10:11:51;100799.22;;;4.34;100.00
32083;BME280;18597;48.328;7.932;2023-01-31T10:17:24;100799.56;;;3.81;100.00
32083;BME280;18597;48.328;7.932;2023-01-31T10:20:02;100801.22;;;3.83;100.00
32083;BME280;18597;48.328;7.932;2023-01-31T10:22:39;100793.38;;;3.82;100.00
32083;BME280;18597;48.328;7.932;2023-01-31T10:28:12;100804.03;;;4.02;100.00
32083;BME280;18597;48.328;7.932;2023-01-31T10:30:50;100814.06;;;4.16;100.00
32083;BME280;18597;48.328;7.932;2023-01-31T10:36:58;100821.63;;;4.88;100.00
32083;BME280;18597;48.328;7.932;2023-01-31T10:39:35;100820.41;;;4.74;100.00
32083;BME280;18597;48.328;7.932;2023-01-31T10:42:33;100830.56;;;5.06;100.00
32083;BME280;18597;48.328;7.932;2023-01-31T10:45:20;100838.03;;;5.37;100.00
32083;BME280;18597;48.328;7.932;2023-01-31T10:47:52;100834.84;;;5.68;98.55
32083;BME280;18597;48.328;7.932;2023-01-31T10:56:36;100840.66;;;6.50;94.31
32083;BME280;18597;48.328;7.932;2023-01-31T10:59:11;100835.91;;;6.56;91.48
32083;BME280;18597;48.328;7.932;2023-01-31T11:01:39;100827.31;;;6.68;89.66
32083;BME280;18597;48.328;7.932;2023-01-31T11:04:31;100832.25;;;6.59;88.82
32083;BME280;18597;48.328;7.932;2023-01-31T11:07:00;100826.47;;;6.85;87.60
32083;BME280;18597;48.328;7.932;2023-01-31T11:09:31;100820.75;;;6.93;88.42
32083;BME280;18597;48.328;7.932;2023-01-31T11:12:02;100819.16;;;6.73;90.19
32083;BME280;18597;48.328;7.932;2023-01-31T11:14:29;100817.56;;;6.52;91.89
32083;BME280;18597;48.328;7.932;2023-01-31T11:17:01;100817.00;;;6.45;90.67
32083;BME280;18597;48.328;7.932;2023-01-31T11:19:44;100808.41;;;6.40;92.01
32083;BME280;18597;48.328;7.932;2023-01-31T11:22:27;100810.06;;;6.43;92.58
32083;BME280;18597;48.328;7.932;2023-01-31T11:24:55;100795.84;;;6.44;90.59
32083;BME280;18597;48.328;7.932;2023-01-31T11:27:45;100785.91;;;6.47;90.79
32083;BME280;18597;48.328;7.932;2023-01-31T11:30:31;100778.03;;;6.46;90.66
32083;BME280;18597;48.328;7.932;2023-01-31T11:33:00;100770.16;;;6.44;87.95
32083;BME280;18597;48.328;7.932;2023-01-31T11:35:30;100763.19;;;6.24;89.67
32083;BME280;18597;48.328;7.932;2023-01-31T11:38:02;100759.19;;;6.33;90.53
32083;BME280;18597;48.328;7.932;2023-01-31T11:40:33;100757.19;;;6.55;87.26
32083;BME280;18597;48.328;7.932;2023-01-31T11:43:03;100747.56;;;6.18;89.94
32083;BME280;18597;48.328;7.932;2023-01-31T11:45:33;100739.41;;;6.04;89.49
32083;BME280;18597;48.328;7.932;2023-01-31T11:48:20;100735.66;;;5.91;90.77
32083;BME280;18597;48.328;7.932;2023-01-31T11:50:54;100729.38;;;6.10;90.24
32083;BME280;18597;48.328;7.932;2023-01-31T11:56:23;100723.59;;;6.72;84.86
32083;BME280;18597;48.328;7.932;2023-01-31T11:58:55;100729.28;;;6.81;84.15
32083;BME280;18597;48.328;7.932;2023-01-31T12:01:24;100719.84;;;6.76;82.88
32083;BME280;18597;48.328;7.932;2023-01-31T12:03:56;100708.69;;;7.02;83.07
32083;BME280;18597;48.328;7.932;2023-01-31T12:06:32;100714.94;;;7.34;80.66
32083;BME280;18597;48.328;7.932;2023-01-31T12:09:01;100715.88;;;7.49;74.14
32083;BME280;18597;48.328;7.932;2023-01-31T12:11:33;100703.78;;;7.43;77.03
32083;BME280;18597;48.328;7.932;2023-01-31T12:14:12;100710.66;;;7.79;74.44
32083;BME280;18597;48.328;7.932;2023-01-31T12:16:38;100696.88;;;8.02;75.00
32083;BME280;18597;48.328;7.932;2023-01-31T12:22:15;100687.81;;;8.21;69.42
32083;BME280;18597;48.328;7.932;2023-01-31T12:25:27;100687.19;;;8.31;70.31
32083;BME280;18597;48.328;7.932;2023-01-31T12:28:26;100676.34;;;8.34;71.13
32083;BME280;18597;48.328;7.932;2023-01-31T12:37:17;100674.97;;;8.43;69.26
32083;BME280;18597;48.328;7.932;2023-01-31T12:40:04;100662.88;;;8.38;67.27
32083;BME280;18597;48.328;7.932;2023-01-31T12:42:56;100650.38;;;7.94;69.23
32083;BME280;18597;48.328;7.932;2023-01-31T12:46:07;100647.19;;;7.41;72.15
32083;BME280;18597;48.328;7.932;2023-01-31T12:55:18;100649.47;;;7.16;74.03
32083;BME280;18597;48.328;7.932;2023-01-31T13:00:57;100662.53;;;6.87;77.46
32083;BME280;18597;48.328;7.932;2023-01-31T13:06:57;100659.25;;;7.15;78.08
32083;BME280;18597;48.328;7.932;2023-01-31T13:09:30;100667.75;;;7.22;78.07
32083;BME280;18597;48.328;7.932;2023-01-31T13:12:18;100648.47;;;7.18;78.42
32083;BME280;18597;48.328;7.932;2023-01-31T13:17:43;100636.38;;;7.13;79.38
32083;BME280;18597;48.328;7.932;2023-01-31T13:22:50;100629.59;;;7.39;77.07
32083;BME280;18597;48.328;7.932;2023-01-31T13:25:34;100632.00;;;7.28;76.08
32083;BME280;18597;48.328;7.932;2023-01-31T13:28:24;100633.38;;;7.19;76.62
32083;BME280;18597;48.328;7.932;2023-01-31T13:30:58;100618.44;;;7.32;77.05
32083;BME280;18597;48.328;7.932;2023-01-31T13:33:36;100623.00;;;7.30;77.00
32083;BME280;18597;48.328;7.932;2023-01-31T13:36:39;100606.94;;;7.32;76.94
32083;BME280;18597;48.328;7.932;2023-01-31T13:39:31;100603.28;;;7.34;76.14
32083;BME280;18597;48.328;7.932;2023-01-31T13:41:58;100595.44;;;7.47;77.16
32083;BME280;18597;48.328;7.932;2023-01-31T13:44:23;100597.97;;;7.18;77.17
32083;BME280;18597;48.328;7.932;2023-01-31T13:47:19;100591.28;;;7.27;77.51
32083;BME280;18597;48.328;7.932;2023-01-31T13:49:57;100597.13;;;7.18;76.70
32083;BME280;18597;48.328;7.932;2023-01-31T13:52:46;100594.78;;;7.12;77.34
32083;BME280;18597;48.328;7.932;2023-01-31T13:55:22;100574.28;;;6.82;78.54
32083;BME280;18597;48.328;7.932;2023-01-31T13:57:56;100575.78;;;7.04;80.38
32083;BME280;18597;48.328;7.932;2023-01-31T14:00:46;100572.47;;;7.30;78.59
32083;BME280;18597;48.328;7.932;2023-01-31T14:03:17;100572.00;;;7.54;76.70
32083;BME280;18597;48.328;7.932;2023-01-31T14:05:52;100583.81;;;7.79;75.25
32083;BME280;18597;48.328;7.932;2023-01-31T14:14:28;100562.59;;;7.32;77.99
32083;BME280;18597;48.328;7.932;2023-01-31T14:16:55;100566.78;;;7.52;73.77
32083;BME280;18597;48.328;7.932;2023-01-31T14:22:11;100564.84;;;7.70;73.25
32083;BME280;18597;48.328;7.932;2023-01-31T14:24:57;100570.53;;;7.94;73.30
32083;BME280;18597;48.328;7.932;2023-01-31T14:27:33;100559.53;;;8.14;71.48
32083;BME280;18597;48.328;7.932;2023-01-31T14:30:14;100547.09;;;7.70;67.44
32083;BME280;18597;48.328;7.932;2023-01-31T14:36:32;100528.44;;;8.00;70.35
32083;BME280;18597;48.328;7.932;2023-01-31T14:39:42;100538.72;;;8.06;69.40
32083;BME280;18597;48.328;7.932;2023-01-31T14:45:48;100542.72;;;8.14;69.39
32083;BME280;18597;48.328;7.932;2023-01-31T14:51:43;100531.78;;;8.18;70.68
32083;BME280;18597;48.328;7.932;2023-01-31T14:57:26;100542.69;;;7.99;68.38
32083;BME280;18597;48.328;7.932;2023-01-31T15:00:17;100546.16;;;7.86;68.42